Saturday, November 17, 2018, 7:36 AM GMT
Back to Local

CYGK, Kingston, Ont.

Location: , , Canada Lat: 44.217
Local Time: 7:36 AM GMT ( 7:36 GMT) Lon: -76.6
Time Zone: GMT Elev: 305 ft

Show me the last for .
Show Decoded

2018-11-17 04:00 METAR CYGK 170400Z 26013G21KT 8SM FEW008 BKN055 OVC090 03/01 A2981 RMK SF1SC6AC1
                 LAST STFD OBS/NEXT 171100 UTC SLP099 =
2018-11-17 03:00 METAR CYGK 170300Z 26016KT 8SM FEW006 BKN045 OVC080 03/00 A2979 RMK SF1SC4AC3
                 SLP094 =
2018-11-17 02:00 METAR CYGK 170200Z 26013G24KT 8SM -RA FEW006 BKN035 OVC060 02/00 A2977 RMK
                 SF1SC4SC3 SLP087 =
2018-11-17 01:00 METAR CYGK 170100Z 25015G23KT 8SM -RA FEW006 BKN030 OVC090 02/01 A2975 RMK
                 SF2SC3AC3 SLP081 =
2018-11-17 00:00 METAR CYGK 170000Z 25013G23KT 12SM -RA FEW008 BKN060 OVC090 02/01 A2973 RMK
                 SF2SC4AC2 SLP073 =
2018-11-16 23:00 METAR CYGK 162300Z 26014G19KT 10SM -RA BKN008 BKN020 OVC055 02/01 A2970 RMK
                 SF5SC1SC2 SLP063 =
2018-11-16 22:00 METAR CYGK 162200Z 26013G20KT 8SM -RA BKN008 OVC020 02/01 A2969 RMK SF7SC1 CIG
                 RAG SLP058 =
2018-11-16 21:00 METAR CYGK 162100Z 26009KT 5SM -RA BR BKN006 OVC038 01/01 A2967 RMK SF7SC1
                 SLP052 =
2018-11-16 20:52 METAR CYGK 162052Z 26010G15KT 4SM -RA BR OVC006 01/01 A2967 RMK SF8 CIG RAG
                 SLP052 =
2018-11-16 20:35 METAR CYGK 162035Z 26007G15KT 2 1/2SM -SN BKN006 OVC012 01/00 A2967 RMK SF6SC2
                 CIG RAG SLP052 =
2018-11-16 20:00 METAR CYGK 162000Z 00000KT 1 1/4SM -SN BKN007 OVC012 M01/M01 A2966 RMK GR2SF3SC3
                 SLP049 =
2018-11-16 19:00 METAR CYGK 161900Z 01004KT 1SM -SN BKN008 OVC015 M01/M02 A2965 RMK SN3SF4SC1
                 /S01/ SLP046 =
2018-11-16 18:32 METAR CYGK 161832Z 36004KT 1 1/4SM -SN BKN007 OVC020 M02/M02 A2965 RMK SN3SF4NS1
                 SLP046 =
2018-11-16 18:00 METAR CYGK 161800Z 35005KT 3/4SM -SN VV006 M02/M02 A2966 RMK SN8 /S03/ SLP049 =
2018-11-16 17:46 METAR CYGK 161746Z 36005KT 3/4SM -SN VV006 M02/M02 A2966 RMK SN8 SLP049 =
2018-11-16 17:00 METAR CYGK 161700Z 03004KT 1 1/2SM -SN OVC007 M02/M03 A2967 RMK SN4SC4 CIG VRB
                 6-8 SLP052 =
2018-11-16 16:00 METAR CYGK 161600Z 05006KT 2SM -SN OVC009 M02/M03 A2969 RMK SN2SC6 SLP061 =
2018-11-16 15:27 METAR CYGK 161527Z 04005KT 6SM -SN OVC010 M03/M04 A2971 RMK SC8 VIS SW - NW 3
                 SLP066 =
2018-11-16 15:00 METAR CYGK 161500Z 06007KT 6SM -SN SCT020 OVC036 M03/M04 A2970 RMK SF4SC4 SLP065
                 =
2018-11-16 14:43 METAR CYGK 161443Z 04005KT 5SM -SN FEW012 BKN035 OVC076 M03/M04 A2971 RMK
                 SF2SC5AC1 SLP067 =
2018-11-16 14:27 METAR CYGK 161427Z 05007KT 2 1/2SM -SN SCT012 BKN034 OVC077 M03/M04 A2971 RMK
                 SF3SC4AC1 SLP066 =
2018-11-16 14:00 METAR CYGK 161400Z 04008KT 1 1/2SM -SN BKN010 BKN035 OVC150 M04/M04 A2972 RMK
                 SN3SF2SC2AC1 /S01/ PRESFR SLP069 =
2018-11-16 13:00 METAR CYGK 161300Z 04004KT 2SM -SN SCT010 OVC036 M04/M04 A2974 RMK SN2SF2SC4
                 SLP076 =
2018-11-16 12:30 METAR CYGK 161230Z 05008KT 1 1/2SM -SN BKN012 OVC034 M04/M04 A2974 RMK SN4SF2SC2
                 SLP076 =
2018-11-16 12:20 METAR CYGK 161220Z 05007KT 2 1/2SM -SN BKN012 OVC036 M03/M04 A2974 RMK SN2SF4SC2
                 SLP077 =
2018-11-16 12:00 METAR CYGK 161200Z 05008KT 4SM -SN BKN015 OVC046 M03/M04 A2974 RMK SF5SC3 SLP077
                 =
2018-11-16 11:00 METAR CYGK 161100Z 05010KT 6SM -SN SCT014 OVC044 M03/M04 A2977 RMK SF3SC5 /S08/
                 SLP086 =

Support USWX by starting your Amazon purchase here.